• Join FlightAware (Why Join?)
  • Login
  • US Flag 
03:56PM EST


 

Airport Tracker/Info


-or-


 

Live Flight TrackerFlight Track Log ✈ DAL2369 ✈ 15-Jun-2013 ✈ KMCO - KATL

Flight Track Log - Related Links

Times and Time Zones

All times are in EDT time to prevent confusion due to time zone crossing. See the DAL2369 flight status page for this flight to view local times or setup timezone preferences in your user account.

Time Position Orientation Groundspeed Altitude Reporting Facility
EDT Latitude Longitude Course Direction KTS MPH feet Rate Location/Type
03:36PM 28.4000 -81.3000 350° North 189 217 700  Level Orlando TRACON
03:37PM 28.3667 -81.2500 127° Southeast 242 278 3,200 2,857 Climbing Orlando TRACON
03:38PM 28.3667 -81.1667 90° East 266 306 6,700 3,300 Climbing Orlando TRACON
03:39PM 28.7327 -81.3404 353° North  Level FlightAware Approximate
03:39PM 28.4500 -81.1833 350° North 287 330 9,800  Level Orlando TRACON
03:40PM 28.8391 -81.3512 350° North  Level FlightAware Approximate
03:41PM 28.9448 -81.3667 North  Level FlightAware Approximate
03:41PM 28.6317 -81.2417 344° North 339 390 13,900  Level Jacksonville Center
03:42PM 29.0510 -81.3769 350° North  Level FlightAware Approximate
03:42PM 28.7367 -81.2756 344° North 371 427 16,500  Level Jacksonville Center
03:43PM 28.8433 -81.3092 345° North 384 442 18,900 2,300 Climbing Jacksonville Center
03:44PM 28.9567 -81.3431 345° North 397 457 21,100 2,150 Climbing Jacksonville Center
03:45PM 29.0697 -81.3792 344° North 413 475 23,200 1,900 Climbing Jacksonville Center
03:46PM 29.1889 -81.3989 352° North 433 498 24,900 1,700 Climbing Jacksonville Center
03:47PM 29.3100 -81.4114 355° North 439 505 26,600 1,550 Climbing Jacksonville Center
03:48PM 29.4211 -81.4311 351° North 447 514 28,000 1,500 Climbing Jacksonville Center
03:49PM 29.5406 -81.4842 339° North 447 514 29,600 1,750 Climbing Jacksonville Center
03:50PM 29.6622 -81.5350 340° North 457 526 31,500 1,750 Climbing Jacksonville Center
03:51PM 29.7797 -81.5836 340° North 458 527 33,100 1,600 Climbing Jacksonville Center
03:52PM 29.8992 -81.6347 340° North 452 520 34,700 950 Climbing Jacksonville Center
03:53PM 30.0167 -81.6883 338° Northwest 452 520 35,000 150 Climbing Jacksonville Center
03:54PM 30.1319 -81.7350 341° North 452 520 35,000  Level Jacksonville Center
03:55PM 30.2492 -81.7864 339° North 447 514 35,000  Level Jacksonville Center
03:56PM 30.3667 -81.8381 339° North 447 514 35,000  Level Jacksonville Center
03:57PM 30.4839 -81.8897 339° North 447 514 35,000  Level Jacksonville Center
03:58PM 30.6078 -81.9633 333° Northwest 455 524 35,000  Level Jacksonville Center
03:59PM 30.7044 -82.0639 318° Northwest 449 517 35,000  Level Jacksonville Center
04:00PM 30.7989 -82.1597 319° Northwest 454 522 35,000  Level Jacksonville Center
04:01PM 30.8933 -82.2533 320° Northwest 454 522 35,000  Level Jacksonville Center
04:02PM 31.0064 -82.3083 337° Northwest 443 510 35,000  Level Jacksonville Center
04:04PM 31.2492 -82.3872 344° North 440 506 35,000  Level Atlanta Center
04:05PM 31.3583 -82.4242 344° North 440 506 35,000  Level Atlanta Center
04:06PM 31.5028 -82.4703 345° North 446 513 35,000  Level Atlanta Center
04:07PM 31.6244 -82.5097 345° North 446 513 35,000  Level Atlanta Center
04:08PM 31.7439 -82.5517 343° North 446 513 35,000  Level Atlanta Center
04:09PM 31.8592 -82.5914 344° North 441 507 35,000  Level Atlanta Center
04:10PM 31.9786 -82.6333 343° North 447 514 35,000  Level Atlanta Center
04:11PM 32.0919 -82.6931 336° Northwest 441 507 35,000  Level Atlanta Center
04:12PM 32.1847 -82.7872 319° Northwest 433 498 35,000 -550 Level Atlanta Center
04:13PM 32.2817 -82.8867 319° Northwest 443 510 33,900  Descending Atlanta Center
04:14PM 32.3786 -82.9836 320° Northwest 449 517 35,000 -1,150 Climbing Atlanta Center
04:15PM 32.4733 -83.0786 320° Northwest 449 517 31,600 -2,250 Descending Atlanta Center
04:16PM 32.5722 -83.1761 320° Northwest 455 524 30,500 -1,300 Descending Atlanta Center
04:17PM 32.6708 -83.2714 321° Northwest 461 531 29,000 -2,050 Descending Atlanta Center
04:18PM 32.7697 -83.3694 320° Northwest 456 525 26,400 -2,600 Descending Atlanta Center
04:19PM 32.8619 -83.4625 320° Northwest 450 518 23,800 -2,500 Descending Atlanta Center
04:20PM 32.9500 -83.5439 322° Northwest 429 494 21,400 -2,750 Descending Atlanta Center
04:21PM 33.0294 -83.6250 319° Northwest 405 466 18,300 -2,700 Descending Atlanta Center
04:22PM 33.1092 -83.7064 319° Northwest 390 449 16,000 -2,033 Descending Atlanta Center
04:23PM 33.1833 -83.7833 319° Northwest 364 419 14,200 -1,289 Descending Atlanta TRACON
04:24PM 33.2667 -83.8667 320° Northwest 364 419 13,400 -807 Descending Atlanta TRACON
04:25PM 33.3142 -83.9567 302° West 363 418 12,600 -706 Descending Atlanta Center
04:26PM 33.3767 -84.0536 308° West 363 418 12,000 -300 Descending Atlanta Center
04:27PM 33.4372 -84.1483 307° West 363 418 12,000  Level Atlanta Center
04:28PM 33.5000 -84.2333 312° West 285 328 12,000 -496 Level Atlanta TRACON
04:29PM 33.5333 -84.3000 301° West 251 289 11,000 -1,361 Descending Atlanta TRACON
04:30PM 33.5453 -84.3828 280° West 237 273 9,300 -1,815 Descending Atlanta Center
04:31PM 33.5450 -84.4650 270° West 237 273 7,400 -1,646 Descending Atlanta Center
04:33PM 33.5500 -84.6000 273° West 237 273 4,500 -1,513 Descending Atlanta TRACON